Time;durP1;ratioP1;P1;durP2;ratioP2;P2;SDS_P1;SDS_P2;PMS_P1;PMS_P2;Temp;Humidity;BMP_temperature;BMP_pressure;BME280_temperature;BME280_humidity;BME280_pressure;Samples;Min_cycle;Max_cycle;Signal;HPM_P1;HPM_P2
2021/01/25 00:02:06;;;;;;;1.70;1.60;;;1.60;98.20;;;;;;4978636;28;20513;-81
2021/01/25 00:04:32;;;;;;;1.70;1.50;;;1.60;98.20;;;;;;4978263;28;20497;-80
2021/01/25 00:06:59;;;;;;;1.70;1.60;;;1.60;98.20;;;;;;4977215;28;20560;-78
2021/01/25 00:09:26;;;;;;;1.70;1.50;;;1.60;98.20;;;;;;4977047;28;20490;-79
2021/01/25 00:11:53;;;;;;;1.70;1.60;;;1.50;98.20;;;;;;4975838;28;20498;-79
2021/01/25 00:14:19;;;;;;;1.70;1.40;;;1.50;98.20;;;;;;4975603;28;20997;-78
2021/01/25 00:16:45;;;;;;;1.70;1.43;;;1.50;98.20;;;;;;4981943;28;20552;-82
2021/01/25 00:19:12;;;;;;;1.63;1.40;;;1.50;98.20;;;;;;4982228;28;20462;-81
2021/01/25 00:21:38;;;;;;;1.70;1.50;;;1.50;98.20;;;;;;4977460;28;20505;-81
2021/01/25 00:24:06;;;;;;;1.70;1.40;;;1.50;98.20;;;;;;4974530;28;21550;-81
2021/01/25 00:26:33;;;;;;;1.70;1.50;;;1.50;98.20;;;;;;4975363;28;20489;-80
2021/01/25 00:28:59;;;;;;;1.70;1.47;;;1.50;98.20;;;;;;4975140;28;20501;-79
2021/01/25 00:31:26;;;;;;;1.70;1.50;;;1.50;98.20;;;;;;4973913;28;20474;-81
2021/01/25 00:33:52;;;;;;;1.63;1.40;;;1.50;98.20;;;;;;4971493;28;20521;-81
2021/01/25 00:36:19;;;;;;;1.70;1.50;;;1.40;98.20;;;;;;4970615;28;20516;-80
2021/01/25 00:38:45;;;;;;;1.70;1.53;;;1.50;98.20;;;;;;4975162;28;20984;-79
2021/01/25 00:41:11;;;;;;;1.70;1.60;;;1.40;98.20;;;;;;4977600;28;20818;-81
2021/01/25 00:43:39;;;;;;;1.70;1.50;;;1.40;98.20;;;;;;4971791;28;20481;-81
2021/01/25 00:46:05;;;;;;;1.60;1.47;;;1.40;98.20;;;;;;4966566;28;20507;-80
2021/01/25 00:48:32;;;;;;;6.00;5.60;;;1.40;98.20;;;;;;4971242;28;20521;-81
2021/01/25 00:50:58;;;;;;;1.60;1.40;;;1.40;98.20;;;;;;4977467;28;20760;-81
2021/01/25 00:53:25;;;;;;;1.60;1.40;;;1.40;98.20;;;;;;4979438;28;20509;-80
2021/01/25 00:55:51;;;;;;;1.70;1.60;;;1.40;98.20;;;;;;4981888;28;20458;-78
2021/01/25 00:58:18;;;;;;;1.63;1.50;;;1.40;98.20;;;;;;4977518;28;20462;-80
2021/01/25 01:00:45;;;;;;;1.63;1.50;;;1.40;98.20;;;;;;4977830;28;21012;-80
2021/01/25 01:03:12;;;;;;;1.70;1.60;;;1.40;98.20;;;;;;4975860;28;20494;-81
2021/01/25 01:05:38;;;;;;;1.70;1.50;;;1.40;98.20;;;;;;4975923;28;20472;-81
2021/01/25 01:08:05;;;;;;;1.67;1.53;;;1.40;98.20;;;;;;4976518;28;20910;-80
2021/01/25 01:10:31;;;;;;;1.70;1.60;;;1.40;98.20;;;;;;4976253;28;20504;-78
2021/01/25 01:12:58;;;;;;;1.70;1.50;;;1.40;98.20;;;;;;4977193;28;20501;-81
2021/01/25 01:15:24;;;;;;;1.63;1.40;;;1.40;98.20;;;;;;4977389;28;20515;-79
2021/01/25 01:17:51;;;;;;;1.70;1.50;;;1.40;98.20;;;;;;4979493;28;20504;-79
2021/01/25 01:20:18;;;;;;;1.67;1.50;;;1.40;98.20;;;;;;4977654;28;20485;-79
2021/01/25 01:22:44;;;;;;;1.70;1.50;;;1.40;98.20;;;;;;4979808;28;20957;-79
2021/01/25 01:25:11;;;;;;;1.70;1.50;;;1.40;98.20;;;;;;4982669;28;20486;-79
2021/01/25 01:27:37;;;;;;;1.60;1.40;;;1.40;98.20;;;;;;4986515;28;20497;-79
2021/01/25 01:30:06;;;;;;;1.67;1.50;;;1.40;98.20;;;;;;4978449;28;20517;-78
2021/01/25 01:32:32;;;;;;;1.70;1.50;;;1.40;98.20;;;;;;4978434;28;20498;-79
2021/01/25 01:34:59;;;;;;;1.70;1.50;;;1.40;98.20;;;;;;4979598;28;20504;-80
2021/01/25 01:37:26;;;;;;;2.20;2.03;;;1.40;98.20;;;;;;4980800;28;20462;-79
2021/01/25 01:39:52;;;;;;;1.67;1.47;;;1.40;98.20;;;;;;4979793;28;20987;-79
2021/01/25 01:42:19;;;;;;;1.70;1.60;;;1.40;98.20;;;;;;4980097;28;20473;-79
2021/01/25 01:44:46;;;;;;;1.70;1.60;;;1.40;98.20;;;;;;4981590;28;20996;-78
2021/01/25 01:47:18;;;;;;;1.70;1.50;;;1.40;98.20;;;;;;4975814;28;20501;-79
2021/01/25 01:49:45;;;;;;;1.70;1.57;;;1.40;98.20;;;;;;4976418;28;20786;-78
2021/01/25 01:52:13;;;;;;;1.67;1.50;;;1.40;98.20;;;;;;4977180;28;20489;-79
2021/01/25 01:54:40;;;;;;;1.70;1.60;;;1.40;98.20;;;;;;4978764;28;20474;-81
2021/01/25 01:57:07;;;;;;;1.70;1.50;;;1.40;98.20;;;;;;4979131;28;20516;-81
2021/01/25 01:59:33;;;;;;;1.63;1.50;;;1.30;98.20;;;;;;4982693;28;20458;-80
2021/01/25 02:02:00;;;;;;;1.60;1.50;;;1.30;98.20;;;;;;4981535;28;20492;-81
2021/01/25 02:04:27;;;;;;;1.60;1.50;;;1.40;98.20;;;;;;4978384;28;20736;-78
2021/01/25 02:06:56;;;;;;;1.60;1.50;;;1.40;98.20;;;;;;4977820;28;20470;-78
2021/01/25 02:09:24;;;;;;;10.80;10.10;;;1.40;98.20;;;;;;4977981;28;20541;-78
2021/01/25 02:11:51;;;;;;;1.70;1.60;;;1.40;98.20;;;;;;4978144;28;20505;-78
2021/01/25 02:14:19;;;;;;;1.63;1.50;;;1.40;98.20;;;;;;4976743;28;21418;-78
2021/01/25 02:16:45;;;;;;;1.60;1.50;;;1.40;98.20;;;;;;4977236;28;20964;-78
2021/01/25 02:19:15;;;;;;;1.70;1.60;;;1.40;98.20;;;;;;4983173;28;20466;-78
2021/01/25 02:21:51;;;;;;;1.67;1.50;;;1.40;98.20;;;;;;4980974;28;20481;-78
2021/01/25 02:24:32;;;;;;;1.80;1.70;;;1.40;98.20;;;;;;4967224;28;20497;-78
2021/01/25 02:27:13;;;;;;;1.63;1.43;;;1.40;98.20;;;;;;4977288;28;20772;-78
2021/01/25 02:29:43;;;;;;;1.60;1.50;;;1.40;98.20;;;;;;4976511;28;20872;-80
2021/01/25 02:32:10;;;;;;;1.70;1.60;;;1.40;98.20;;;;;;4978004;28;20988;-78
2021/01/25 02:34:38;;;;;;;3.20;3.00;;;1.40;98.20;;;;;;4981534;28;20465;-77
2021/01/25 02:37:05;;;;;;;1.70;1.60;;;1.40;98.20;;;;;;4968494;28;20508;-79
2021/01/25 02:39:32;;;;;;;1.67;1.40;;;1.40;98.20;;;;;;4971050;28;20501;-77
2021/01/25 02:41:59;;;;;;;1.70;1.60;;;1.40;98.20;;;;;;4982544;28;20513;-79
2021/01/25 02:44:28;;;;;;;1.70;1.60;;;1.40;98.20;;;;;;4974972;28;20514;-78
2021/01/25 02:46:57;;;;;;;1.63;1.50;;;1.40;98.20;;;;;;4976724;28;21012;-78
2021/01/25 02:49:24;;;;;;;1.70;1.50;;;1.40;98.20;;;;;;4968351;28;21371;-80
2021/01/25 02:51:51;;;;;;;1.63;1.40;;;1.40;98.20;;;;;;4979702;28;20482;-79
2021/01/25 02:54:17;;;;;;;1.60;1.50;;;1.40;98.20;;;;;;4980084;28;20457;-80
2021/01/25 02:56:44;;;;;;;1.63;1.50;;;1.40;98.20;;;;;;4976359;28;20461;-78
2021/01/25 02:59:10;;;;;;;1.67;1.50;;;1.40;98.20;;;;;;4969937;28;20566;-78
2021/01/25 03:01:37;;;;;;;1.60;1.50;;;1.40;98.20;;;;;;4976677;28;21087;-78
2021/01/25 03:04:05;;;;;;;1.70;1.50;;;1.40;98.20;;;;;;4974966;28;20564;-78
2021/01/25 03:06:33;;;;;;;1.63;1.40;;;1.40;98.20;;;;;;4979495;28;20481;-80
2021/01/25 03:09:00;;;;;;;1.67;1.50;;;1.40;98.20;;;;;;4972623;28;20521;-77
2021/01/25 03:11:26;;;;;;;1.60;1.40;;;1.40;98.20;;;;;;4971778;28;20625;-78
2021/01/25 03:13:53;;;;;;;1.60;1.40;;;1.40;98.20;;;;;;4979437;28;20466;-78
2021/01/25 03:16:19;;;;;;;1.63;1.50;;;1.40;98.20;;;;;;4975823;28;20513;-78
2021/01/25 03:18:45;;;;;;;1.80;1.70;;;1.40;98.20;;;;;;4972514;28;20836;-79
2021/01/25 03:21:13;;;;;;;1.70;1.60;;;1.40;98.20;;;;;;4976159;28;20521;-80
2021/01/25 03:23:39;;;;;;;1.70;1.60;;;1.40;98.20;;;;;;4976663;28;20504;-78
2021/01/25 03:26:06;;;;;;;1.70;1.60;;;1.40;98.20;;;;;;4974153;28;20490;-79
2021/01/25 03:28:32;;;;;;;1.67;1.50;;;1.40;98.20;;;;;;4970075;28;20506;-78
2021/01/25 03:30:59;;;;;;;1.63;1.50;;;1.40;98.20;;;;;;4974202;28;20485;-78
2021/01/25 03:33:25;;;;;;;1.70;1.53;;;1.40;98.20;;;;;;4982787;28;20465;-78
2021/01/25 03:35:52;;;;;;;1.70;1.60;;;1.40;98.20;;;;;;4975065;28;20466;-79
2021/01/25 03:38:19;;;;;;;1.60;1.40;;;1.40;98.20;;;;;;4969618;28;20514;-78
2021/01/25 03:40:45;;;;;;;1.70;1.50;;;1.40;98.20;;;;;;4970750;28;20489;-79
2021/01/25 03:43:15;;;;;;;1.63;1.50;;;1.40;98.20;;;;;;4980344;28;20454;-79
2021/01/25 03:45:41;;;;;;;1.70;1.50;;;1.40;98.20;;;;;;4974960;28;20542;-78
2021/01/25 03:48:08;;;;;;;1.70;1.60;;;1.40;98.20;;;;;;4968528;28;20488;-79
2021/01/25 03:50:34;;;;;;;1.60;1.50;;;1.40;98.20;;;;;;4976346;28;20812;-79
2021/01/25 03:53:01;;;;;;;1.63;1.50;;;1.40;98.20;;;;;;4976438;28;20544;-79
2021/01/25 03:55:29;;;;;;;1.90;1.80;;;1.40;98.20;;;;;;4969043;28;20898;-79
2021/01/25 03:57:55;;;;;;;1.67;1.50;;;1.40;98.20;;;;;;4975456;28;20980;-80
2021/01/25 04:00:23;;;;;;;1.60;1.50;;;1.40;98.20;;;;;;4978168;28;20481;-80
2021/01/25 04:02:50;;;;;;;1.60;1.50;;;1.40;98.20;;;;;;4974078;28;20489;-80
2021/01/25 04:05:27;;;;;;;1.80;1.70;;;1.40;98.20;;;;;;4971988;28;20646;-80
2021/01/25 04:07:54;;;;;;;1.70;1.60;;;1.40;98.20;;;;;;4975480;28;20466;-80
2021/01/25 04:10:20;;;;;;;1.67;1.50;;;1.40;98.20;;;;;;4974812;28;20919;-80
2021/01/25 04:12:48;;;;;;;1.63;1.40;;;1.40;98.20;;;;;;4977728;28;20472;-81
2021/01/25 04:15:14;;;;;;;1.70;1.50;;;1.40;98.20;;;;;;4984283;28;20966;-79
2021/01/25 04:17:41;;;;;;;1.70;1.50;;;1.40;98.20;;;;;;4978085;28;20485;-80
2021/01/25 04:20:13;;;;;;;1.60;1.40;;;1.40;98.20;;;;;;4974491;28;20513;-80
2021/01/25 04:22:40;;;;;;;1.70;1.50;;;1.40;98.20;;;;;;4975335;28;20470;-80
2021/01/25 04:25:07;;;;;;;1.60;1.50;;;1.40;98.20;;;;;;4980466;28;20482;-80
2021/01/25 04:27:34;;;;;;;1.70;1.60;;;1.30;98.20;;;;;;4979066;28;20474;-80
2021/01/25 04:30:02;;;;;;;1.67;1.40;;;1.30;98.20;;;;;;4969711;28;20521;-80
2021/01/25 04:32:35;;;;;;;1.70;1.50;;;1.30;98.20;;;;;;4977749;28;20521;-80
2021/01/25 04:35:02;;;;;;;1.70;1.60;;;1.30;98.20;;;;;;4978092;28;20465;-79
2021/01/25 04:37:29;;;;;;;1.73;1.63;;;1.30;98.20;;;;;;4972777;28;20553;-78
2021/01/25 04:39:55;;;;;;;1.70;1.50;;;1.30;98.20;;;;;;4976157;28;20481;-80
2021/01/25 04:42:22;;;;;;;1.70;1.60;;;1.30;98.20;;;;;;4976359;28;20497;-80
2021/01/25 04:44:51;;;;;;;2.33;2.13;;;1.30;98.20;;;;;;4984797;28;20496;-79
2021/01/25 04:47:20;;;;;;;1.60;1.50;;;1.30;98.20;;;;;;4982708;28;20486;-80
2021/01/25 04:49:49;;;;;;;1.70;1.60;;;1.30;98.20;;;;;;4975818;28;20894;-81
2021/01/25 04:52:17;;;;;;;1.60;1.50;;;1.30;98.20;;;;;;4976169;28;20458;-80
2021/01/25 04:54:45;;;;;;;1.60;1.50;;;1.30;98.20;;;;;;4974558;28;20497;-80
2021/01/25 04:57:14;;;;;;;1.70;1.50;;;1.30;98.20;;;;;;4974765;28;20488;-80
2021/01/25 04:59:46;;;;;;;1.70;1.50;;;1.30;98.20;;;;;;4975363;28;20466;-80
2021/01/25 05:02:15;;;;;;;1.70;1.50;;;1.30;98.20;;;;;;4974911;28;20470;-81
2021/01/25 05:04:42;;;;;;;1.67;1.50;;;1.30;98.20;;;;;;4979657;28;20489;-80
2021/01/25 05:07:09;;;;;;;1.70;1.60;;;1.30;98.20;;;;;;4984815;28;20462;-80
2021/01/25 05:09:35;;;;;;;1.60;1.50;;;1.20;98.20;;;;;;4975426;28;20601;-81
2021/01/25 05:12:03;;;;;;;1.70;1.60;;;1.30;98.20;;;;;;4974376;28;20501;-80
2021/01/25 05:14:38;;;;;;;1.77;1.67;;;1.30;98.20;;;;;;4973509;28;20721;-80
2021/01/25 05:17:09;;;;;;;1.67;1.50;;;1.30;98.20;;;;;;4974565;28;20477;-81
2021/01/25 05:19:36;;;;;;;1.70;1.50;;;1.30;98.20;;;;;;4972576;28;21003;-80
2021/01/25 05:22:09;;;;;;;1.70;1.50;;;1.30;98.20;;;;;;4973896;28;20482;-80
2021/01/25 05:24:44;;;;;;;1.60;1.50;;;1.30;98.20;;;;;;4973179;28;20465;-79
2021/01/25 05:27:10;;;;;;;1.60;1.50;;;1.30;98.20;;;;;;4974094;28;20476;-79
2021/01/25 05:29:37;;;;;;;1.60;1.50;;;1.30;98.20;;;;;;4976917;28;21102;-80
2021/01/25 05:32:09;;;;;;;1.70;1.50;;;1.30;98.20;;;;;;4978445;28;20497;-80
2021/01/25 05:34:35;;;;;;;1.83;1.73;;;1.30;98.20;;;;;;4973201;28;20465;-80
2021/01/25 05:37:03;;;;;;;1.60;1.50;;;1.30;98.20;;;;;;4982089;28;20492;-80
2021/01/25 05:39:32;;;;;;;1.63;1.50;;;1.30;98.20;;;;;;4973878;28;20813;-80
2021/01/25 05:42:00;;;;;;;1.70;1.50;;;1.30;98.20;;;;;;4972918;28;20564;-79
2021/01/25 05:44:27;;;;;;;1.70;1.60;;;1.30;98.20;;;;;;4973067;28;20465;-80
2021/01/25 05:47:04;;;;;;;1.70;1.60;;;1.30;98.20;;;;;;4973922;28;20466;-80
2021/01/25 05:49:30;;;;;;;1.67;1.50;;;1.30;98.20;;;;;;4973684;28;20513;-82
2021/01/25 05:51:57;;;;;;;1.63;1.50;;;1.30;98.20;;;;;;4974354;28;20867;-81
2021/01/25 05:54:25;;;;;;;1.60;1.50;;;1.40;98.20;;;;;;4968132;28;20462;-79
2021/01/25 05:56:52;;;;;;;1.70;1.60;;;1.40;98.20;;;;;;4974662;28;20497;-79
2021/01/25 05:59:19;;;;;;;1.67;1.50;;;1.40;98.20;;;;;;4974927;28;20453;-79
2021/01/25 06:01:47;;;;;;;1.67;1.53;;;1.50;98.20;;;;;;4980412;28;20488;-79
2021/01/25 06:04:16;;;;;;;1.63;1.40;;;1.40;98.20;;;;;;4977656;28;20963;-80
2021/01/25 06:06:53;;;;;;;1.70;1.50;;;1.50;98.20;;;;;;4973579;28;20533;-80
2021/01/25 06:09:26;;;;;;;1.70;1.50;;;1.50;98.20;;;;;;4972987;28;20481;-80
2021/01/25 06:11:58;;;;;;;1.70;1.50;;;1.50;98.20;;;;;;4972284;28;20493;-80
2021/01/25 06:14:32;;;;;;;2.37;2.17;;;1.50;98.20;;;;;;4973328;28;20462;-80
2021/01/25 06:16:59;;;;;;;1.60;1.50;;;1.50;98.20;;;;;;4972519;28;20564;-80
2021/01/25 06:19:29;;;;;;;1.90;1.80;;;1.50;98.20;;;;;;4971059;28;20458;-80
2021/01/25 06:21:57;;;;;;;1.63;1.50;;;1.50;98.20;;;;;;4973162;28;20478;-80
2021/01/25 06:24:26;;;;;;;1.60;1.50;;;1.50;98.20;;;;;;4973187;28;20466;-80
2021/01/25 06:26:55;;;;;;;1.60;1.50;;;1.50;98.20;;;;;;4973198;28;20502;-79
2021/01/25 06:29:23;;;;;;;1.67;1.50;;;1.50;98.20;;;;;;4969939;28;20486;-80
2021/01/25 06:31:54;;;;;;;1.70;1.57;;;1.50;98.20;;;;;;4973258;28;20481;-80
2021/01/25 06:34:21;;;;;;;1.70;1.50;;;1.50;98.20;;;;;;4975458;28;20897;-80
2021/01/25 06:36:50;;;;;;;1.73;1.63;;;1.50;98.20;;;;;;4972413;28;20544;-81
2021/01/25 06:39:26;;;;;;;1.67;1.40;;;1.50;98.20;;;;;;4972066;28;20969;-81
2021/01/25 06:42:01;;;;;;;1.63;1.43;;;1.50;98.20;;;;;;4969533;28;20539;-80
2021/01/25 06:44:29;;;;;;;1.70;1.50;;;1.50;98.20;;;;;;4978597;28;20563;-81
2021/01/25 06:46:57;;;;;;;1.60;1.40;;;1.60;98.20;;;;;;4980826;28;20457;-80
2021/01/25 06:49:25;;;;;;;1.67;1.50;;;1.60;98.20;;;;;;4973593;28;20478;-80
2021/01/25 06:51:53;;;;;;;1.60;1.50;;;1.60;98.20;;;;;;4975291;28;20484;-80
2021/01/25 06:54:22;;;;;;;1.77;1.67;;;1.50;98.20;;;;;;4974883;28;20462;-80
2021/01/25 06:56:53;;;;;;;1.67;1.50;;;1.50;98.20;;;;;;4975546;28;20549;-80
2021/01/25 06:59:21;;;;;;;1.60;1.40;;;1.50;98.20;;;;;;4976632;28;20946;-80
2021/01/25 07:01:51;;;;;;;1.60;1.40;;;1.50;98.20;;;;;;4975979;28;20486;-80
2021/01/25 07:04:19;;;;;;;1.67;1.50;;;1.50;98.20;;;;;;4975824;28;20642;-80
2021/01/25 07:06:49;;;;;;;1.60;1.50;;;1.50;98.20;;;;;;4975773;28;20470;-80
2021/01/25 07:09:27;;;;;;;1.70;1.50;;;1.60;98.20;;;;;;4974640;28;20889;-80
2021/01/25 07:11:57;;;;;;;1.70;1.60;;;1.60;98.20;;;;;;4973578;28;20490;-80
2021/01/25 07:14:26;;;;;;;1.60;1.40;;;1.60;98.20;;;;;;4971619;28;20920;-80
2021/01/25 07:16:54;;;;;;;1.63;1.50;;;1.60;98.20;;;;;;4974614;28;20460;-80
2021/01/25 07:19:21;;;;;;;1.60;1.50;;;1.60;98.20;;;;;;4974139;28;20688;-80
2021/01/25 07:21:49;;;;;;;1.63;1.47;;;1.60;98.20;;;;;;4970184;28;21000;-80
2021/01/25 07:24:20;;;;;;;1.63;1.40;;;1.70;98.20;;;;;;4974291;28;20469;-80
2021/01/25 07:26:49;;;;;;;1.67;1.50;;;1.70;98.20;;;;;;4988211;28;20552;-80
2021/01/25 07:29:18;;;;;;;1.70;1.60;;;1.70;98.20;;;;;;4974840;28;20544;-80
2021/01/25 07:31:44;;;;;;;1.83;1.73;;;1.70;98.20;;;;;;4974881;28;20976;-80
2021/01/25 07:34:11;;;;;;;1.70;1.60;;;1.70;98.20;;;;;;4974093;28;20925;-80
2021/01/25 07:36:38;;;;;;;1.60;1.50;;;1.70;98.20;;;;;;4976103;28;20473;-80
2021/01/25 07:39:06;;;;;;;1.60;1.43;;;1.70;98.20;;;;;;4973963;28;20466;-80
2021/01/25 07:41:33;;;;;;;1.60;1.37;;;1.70;98.20;;;;;;4975526;28;20871;-80
2021/01/25 07:44:00;;;;;;;1.63;1.50;;;1.70;98.20;;;;;;4976027;28;20830;-80
2021/01/25 07:46:28;;;;;;;1.67;1.50;;;1.70;98.20;;;;;;4973024;28;20466;-81
2021/01/25 07:48:56;;;;;;;1.70;1.50;;;1.70;98.20;;;;;;4975361;28;20490;-81
2021/01/25 07:51:24;;;;;;;1.70;1.60;;;1.70;98.20;;;;;;4973831;28;20489;-81
2021/01/25 07:53:50;;;;;;;1.67;1.40;;;1.70;98.20;;;;;;4969645;28;21013;-81
2021/01/25 07:56:18;;;;;;;1.67;1.50;;;1.70;98.20;;;;;;4974485;28;20480;-81
2021/01/25 07:58:46;;;;;;;1.80;1.70;;;1.70;98.20;;;;;;4974577;28;20497;-83
2021/01/25 08:01:20;;;;;;;1.60;1.50;;;1.70;98.20;;;;;;4971016;28;20489;-82
2021/01/25 08:03:51;;;;;;;1.67;1.50;;;1.70;98.20;;;;;;4974053;28;20470;-84
2021/01/25 08:06:18;;;;;;;1.70;1.60;;;1.70;98.20;;;;;;4984489;28;20969;-84
2021/01/25 08:08:47;;;;;;;1.60;1.40;;;1.80;98.20;;;;;;4977243;28;20470;-84
2021/01/25 08:11:13;;;;;;;1.67;1.50;;;1.80;98.20;;;;;;4971753;28;20525;-82
2021/01/25 08:13:46;;;;;;;1.70;1.57;;;1.70;98.20;;;;;;4974140;28;20497;-83
2021/01/25 08:16:16;;;;;;;1.60;1.50;;;1.70;98.20;;;;;;4972275;28;20529;-82
2021/01/25 08:18:46;;;;;;;1.70;1.50;;;1.70;98.20;;;;;;4970485;28;20931;-82
2021/01/25 08:21:17;;;;;;;1.60;1.40;;;1.70;98.20;;;;;;4973974;28;21076;-82
2021/01/25 08:23:52;;;;;;;1.63;1.40;;;1.70;98.20;;;;;;4973523;28;20488;-82
2021/01/25 08:26:23;;;;;;;1.70;1.60;;;1.80;98.20;;;;;;4974334;28;20980;-81
2021/01/25 08:28:56;;;;;;;1.67;1.47;;;1.70;98.20;;;;;;4971381;28;20484;-81
2021/01/25 08:31:31;;;;;;;1.60;1.40;;;1.70;98.20;;;;;;4968970;28;20485;-81
2021/01/25 08:34:00;;;;;;;1.70;1.50;;;1.70;98.20;;;;;;4969550;28;20493;-82
2021/01/25 08:36:32;;;;;;;1.67;1.50;;;1.70;98.20;;;;;;4970699;28;20546;-82
2021/01/25 08:39:09;;;;;;;1.60;1.40;;;1.70;98.20;;;;;;4966539;28;20473;-82
2021/01/25 08:41:37;;;;;;;1.60;1.40;;;1.70;98.20;;;;;;4969270;28;20531;-81
2021/01/25 08:44:13;;;;;;;3.07;2.77;;;1.70;98.20;;;;;;4970913;28;20469;-81
2021/01/25 08:46:40;;;;;;;1.60;1.40;;;1.70;98.20;;;;;;4967351;28;20484;-82
2021/01/25 08:49:10;;;;;;;1.63;1.50;;;1.70;98.20;;;;;;4970314;28;20471;-82
2021/01/25 08:51:37;;;;;;;1.80;1.70;;;1.70;98.20;;;;;;4969747;28;20504;-82
2021/01/25 08:54:05;;;;;;;1.70;1.60;;;1.70;98.20;;;;;;4976591;28;20470;-81
2021/01/25 08:56:38;;;;;;;1.60;1.40;;;1.80;98.20;;;;;;4971748;28;20999;-82
2021/01/25 08:59:14;;;;;;;1.67;1.57;;;1.80;98.20;;;;;;4969565;28;20561;-82
2021/01/25 09:01:43;;;;;;;1.60;1.40;;;1.80;98.20;;;;;;4968747;28;20485;-82
2021/01/25 09:04:10;;;;;;;1.67;1.50;;;1.80;98.20;;;;;;4969313;28;20480;-82
2021/01/25 09:06:48;;;;;;;1.70;1.50;;;1.80;98.20;;;;;;4971080;28;20520;-82
2021/01/25 09:09:15;;;;;;;1.80;1.70;;;1.80;98.20;;;;;;4971368;28;20482;-82
2021/01/25 09:11:42;;;;;;;1.73;1.63;;;1.80;98.20;;;;;;4974968;28;21113;-82
2021/01/25 09:14:08;;;;;;;1.67;1.50;;;1.90;98.20;;;;;;4975757;28;20462;-81
2021/01/25 09:16:36;;;;;;;1.70;1.50;;;1.90;98.20;;;;;;4972805;28;20518;-81
2021/01/25 09:19:02;;;;;;;1.70;1.60;;;1.90;98.20;;;;;;4973062;28;20553;-81
2021/01/25 09:21:29;;;;;;;1.70;1.60;;;1.90;98.20;;;;;;4970380;28;20637;-81
2021/01/25 09:23:55;;;;;;;1.70;1.60;;;1.90;98.20;;;;;;4971487;28;20502;-81
2021/01/25 09:26:22;;;;;;;1.60;1.50;;;1.90;98.20;;;;;;4972220;28;20466;-81
2021/01/25 09:28:48;;;;;;;1.70;1.60;;;1.90;98.20;;;;;;4971693;28;20512;-81
2021/01/25 09:31:18;;;;;;;1.67;1.50;;;1.90;98.20;;;;;;4973376;28;20502;-81
2021/01/25 09:33:48;;;;;;;1.80;1.70;;;1.90;98.20;;;;;;4972237;28;20473;-81
2021/01/25 09:36:14;;;;;;;1.70;1.50;;;1.90;98.20;;;;;;4973735;28;20478;-80
2021/01/25 09:38:41;;;;;;;1.70;1.50;;;2.00;98.20;;;;;;4972389;28;20466;-80
2021/01/25 09:41:07;;;;;;;1.70;1.50;;;2.00;98.20;;;;;;4972923;28;21016;-81
2021/01/25 09:43:34;;;;;;;1.67;1.53;;;2.00;98.20;;;;;;4973363;28;20959;-81
2021/01/25 09:46:00;;;;;;;1.70;1.60;;;2.00;98.20;;;;;;4973102;28;20498;-81
2021/01/25 09:48:27;;;;;;;1.70;1.60;;;2.00;98.20;;;;;;4972927;28;20482;-80
2021/01/25 09:50:54;;;;;;;1.70;1.53;;;2.00;98.20;;;;;;4971815;28;20533;-80
2021/01/25 09:53:21;;;;;;;1.70;1.50;;;2.10;98.20;;;;;;4972317;28;20468;-83
2021/01/25 09:55:49;;;;;;;1.70;1.40;;;2.10;98.20;;;;;;4973329;28;20469;-82
2021/01/25 09:58:16;;;;;;;1.67;1.40;;;2.10;98.20;;;;;;4973474;28;20481;-82
2021/01/25 10:00:42;;;;;;;1.70;1.40;;;2.10;98.20;;;;;;4975213;28;20576;-80
2021/01/25 10:03:09;;;;;;;1.70;1.60;;;2.20;98.20;;;;;;4972322;28;20466;-81
2021/01/25 10:05:36;;;;;;;1.60;1.40;;;2.20;98.20;;;;;;4973000;28;20470;-80
2021/01/25 10:08:03;;;;;;;1.70;1.60;;;2.20;98.20;;;;;;4970792;28;20466;-79
2021/01/25 10:10:31;;;;;;;1.63;1.40;;;2.20;98.20;;;;;;4970819;28;20497;-81
2021/01/25 10:12:57;;;;;;;1.70;1.50;;;2.20;98.20;;;;;;4978694;28;20466;-81
2021/01/25 10:15:24;;;;;;;1.63;1.40;;;2.30;98.20;;;;;;4972409;28;20954;-81
2021/01/25 10:17:51;;;;;;;1.70;1.53;;;2.30;98.20;;;;;;4973293;28;20470;-81
2021/01/25 10:20:17;;;;;;;1.70;1.47;;;2.30;98.20;;;;;;4973945;28;20486;-81
2021/01/25 10:22:44;;;;;;;1.70;1.50;;;2.40;98.20;;;;;;4976421;28;20470;-81
2021/01/25 10:25:13;;;;;;;1.63;1.40;;;2.40;98.20;;;;;;4976357;28;20582;-81
2021/01/25 10:27:40;;;;;;;1.70;1.50;;;2.40;98.20;;;;;;4974030;28;20469;-81
2021/01/25 10:30:09;;;;;;;1.70;1.50;;;2.40;98.20;;;;;;4975056;28;20728;-80
2021/01/25 10:32:35;;;;;;;1.70;1.50;;;2.50;98.20;;;;;;4976814;28;20959;-80
2021/01/25 10:35:03;;;;;;;1.63;1.40;;;2.50;98.20;;;;;;4975080;28;21021;-80
2021/01/25 10:37:29;;;;;;;1.63;1.40;;;2.50;98.20;;;;;;4976352;28;20970;-80
2021/01/25 10:39:56;;;;;;;1.70;1.50;;;2.60;98.20;;;;;;4975802;28;20498;-80
2021/01/25 10:42:32;;;;;;;1.70;1.50;;;2.60;98.20;;;;;;4974856;28;20542;-81
2021/01/25 10:45:02;;;;;;;1.70;1.50;;;2.60;98.20;;;;;;4975428;28;20858;-81
2021/01/25 10:47:29;;;;;;;1.60;1.40;;;2.60;98.20;;;;;;4971041;28;20474;-81
2021/01/25 10:49:57;;;;;;;1.67;1.40;;;2.60;98.20;;;;;;4978216;28;20505;-81
2021/01/25 10:52:24;;;;;;;1.60;1.40;;;2.60;98.20;;;;;;4976510;28;20497;-80
2021/01/25 10:54:51;;;;;;;1.67;1.50;;;2.70;98.20;;;;;;4975154;28;20552;-80
2021/01/25 10:57:17;;;;;;;1.63;1.40;;;2.70;98.20;;;;;;4973938;28;20528;-81
2021/01/25 10:59:45;;;;;;;1.60;1.50;;;2.70;98.20;;;;;;4986022;28;20461;-81
2021/01/25 11:02:11;;;;;;;1.67;1.50;;;2.80;98.20;;;;;;4977488;28;20485;-80
2021/01/25 11:04:38;;;;;;;1.70;1.50;;;2.80;98.20;;;;;;4975847;28;20466;-81
2021/01/25 11:07:04;;;;;;;1.60;1.40;;;2.80;98.20;;;;;;4977014;28;20497;-80
2021/01/25 11:09:31;;;;;;;1.60;1.40;;;2.80;98.20;;;;;;4976239;28;21434;-80
2021/01/25 11:11:58;;;;;;;1.70;1.47;;;2.90;98.20;;;;;;4973969;28;20516;-80
2021/01/25 11:14:25;;;;;;;1.70;1.50;;;2.90;98.20;;;;;;4975528;28;20462;-80
2021/01/25 11:16:52;;;;;;;1.60;1.40;;;2.90;98.20;;;;;;4972766;28;20469;-80
2021/01/25 11:19:18;;;;;;;1.60;1.40;;;2.80;98.20;;;;;;4971875;28;20469;-80
2021/01/25 11:21:45;;;;;;;1.70;1.50;;;2.90;98.20;;;;;;4970457;28;20502;-80
2021/01/25 11:24:11;;;;;;;1.60;1.40;;;2.90;98.20;;;;;;4969323;28;20880;-79
2021/01/25 11:26:39;;;;;;;1.60;1.40;;;2.90;98.20;;;;;;4971626;28;20560;-79
2021/01/25 11:29:06;;;;;;;1.60;1.37;;;3.00;98.20;;;;;;4970878;28;20458;-79
2021/01/25 11:31:32;;;;;;;1.70;1.50;;;3.00;98.20;;;;;;4978689;28;20588;-79
2021/01/25 11:34:00;;;;;;;1.70;1.40;;;3.00;98.20;;;;;;4971670;28;20535;-79
2021/01/25 11:36:27;;;;;;;1.63;1.40;;;3.00;98.20;;;;;;4971562;28;20472;-80
2021/01/25 11:38:54;;;;;;;1.70;1.50;;;3.10;98.20;;;;;;4971189;28;20485;-79
2021/01/25 11:41:21;;;;;;;1.63;1.40;;;3.10;98.20;;;;;;4974067;28;20501;-81
2021/01/25 11:43:47;;;;;;;1.63;1.40;;;3.00;98.20;;;;;;4970579;28;20466;-80
2021/01/25 11:46:14;;;;;;;1.60;1.30;;;3.00;98.20;;;;;;4973887;28;20481;-81
2021/01/25 11:48:41;;;;;;;1.63;1.40;;;3.10;98.20;;;;;;4972396;28;20466;-80
2021/01/25 11:51:08;;;;;;;1.70;1.53;;;3.10;98.20;;;;;;4972884;28;20949;-79
2021/01/25 11:53:35;;;;;;;1.70;1.40;;;3.10;98.20;;;;;;4981117;28;20457;-79
2021/01/25 11:56:02;;;;;;;1.70;1.40;;;3.10;98.20;;;;;;4972186;28;20470;-79
2021/01/25 11:58:29;;;;;;;1.67;1.40;;;3.10;98.20;;;;;;4973000;28;20470;-80
2021/01/25 12:00:55;;;;;;;1.60;1.47;;;3.10;98.20;;;;;;4972851;28;21024;-79
2021/01/25 12:03:22;;;;;;;1.67;1.47;;;3.10;98.20;;;;;;4971893;28;20497;-79
2021/01/25 12:05:49;;;;;;;1.60;1.30;;;3.10;98.20;;;;;;4974528;28;20489;-78
2021/01/25 12:08:16;;;;;;;1.70;1.50;;;3.10;98.20;;;;;;4973421;28;20497;-83
2021/01/25 12:10:45;;;;;;;1.70;1.40;;;3.10;98.20;;;;;;4975493;28;20489;-79
2021/01/25 12:13:11;;;;;;;1.63;1.40;;;3.10;98.20;;;;;;4971891;28;20478;-80
2021/01/25 12:15:38;;;;;;;1.60;1.30;;;3.10;98.20;;;;;;4974712;28;20521;-78
2021/01/25 12:18:05;;;;;;;1.63;1.30;;;3.10;98.20;;;;;;4973942;28;20996;-79
2021/01/25 12:20:31;;;;;;;1.67;1.40;;;3.10;98.20;;;;;;4975228;28;20494;-79
2021/01/25 12:22:58;;;;;;;1.67;1.50;;;3.10;98.20;;;;;;4973812;28;20918;-79
2021/01/25 12:25:26;;;;;;;1.63;1.40;;;3.00;98.20;;;;;;4974414;28;20505;-79
2021/01/25 12:27:54;;;;;;;1.67;1.40;;;3.10;98.20;;;;;;4973626;28;20552;-79
2021/01/25 12:30:21;;;;;;;1.60;1.30;;;3.10;98.20;;;;;;4972052;28;20577;-79
2021/01/25 12:32:49;;;;;;;1.63;1.40;;;3.20;98.20;;;;;;4971214;28;20888;-79
2021/01/25 12:35:16;;;;;;;1.67;1.40;;;3.20;98.20;;;;;;4972335;28;20562;-79
2021/01/25 12:37:44;;;;;;;1.60;1.40;;;3.20;98.20;;;;;;4971672;28;20505;-80
2021/01/25 12:40:11;;;;;;;1.60;1.40;;;3.30;98.20;;;;;;4971494;28;20556;-79
2021/01/25 12:42:39;;;;;;;1.70;1.50;;;3.30;98.20;;;;;;4971295;28;20503;-80
2021/01/25 12:45:07;;;;;;;1.70;1.60;;;3.40;98.20;;;;;;4971698;28;20512;-80
2021/01/25 12:47:34;;;;;;;1.60;1.40;;;3.40;98.20;;;;;;4968538;28;20498;-80
2021/01/25 12:50:00;;;;;;;1.70;1.40;;;3.50;98.20;;;;;;4976816;28;20490;-80
2021/01/25 12:52:29;;;;;;;1.70;1.43;;;3.50;98.20;;;;;;4971445;28;20473;-80
2021/01/25 12:54:55;;;;;;;1.60;1.40;;;3.60;98.20;;;;;;4969039;28;21152;-80
2021/01/25 12:57:22;;;;;;;1.60;1.30;;;3.70;98.20;;;;;;4971538;28;20485;-81
2021/01/25 12:59:49;;;;;;;1.70;1.50;;;3.80;98.20;;;;;;4972416;28;20552;-81
2021/01/25 13:02:16;;;;;;;1.60;1.40;;;4.00;98.20;;;;;;4970925;28;20466;-81